createdAt,value
2019-06-07T00:01:16.458Z,73.97
2019-06-07T00:03:47.338Z,73.84
2019-06-07T00:06:23.856Z,73.82
2019-06-07T00:08:48.873Z,73.52
2019-06-07T00:11:20.670Z,74.21
2019-06-07T00:13:50.528Z,72.05
2019-06-07T00:16:23.288Z,71.26
2019-06-07T00:18:52.013Z,71.30
2019-06-07T00:22:12.263Z,71.07
2019-06-07T00:23:53.697Z,70.57
2019-06-07T00:26:23.686Z,71.03
2019-06-07T00:28:53.595Z,71.02
2019-06-07T00:31:24.761Z,71.07
2019-06-07T00:33:56.303Z,70.84
2019-06-07T00:36:26.386Z,70.42
2019-06-07T00:38:56.291Z,70.72
2019-06-07T00:41:26.219Z,71.03
2019-06-07T00:43:56.123Z,70.55
2019-06-07T00:46:26.110Z,70.58
2019-06-07T00:48:56.914Z,71.22
2019-06-07T00:51:26.785Z,70.70
2019-06-07T00:53:56.777Z,70.89
2019-06-07T00:56:26.962Z,70.68
2019-06-07T00:59:10.671Z,71.17
2019-06-07T01:01:28.539Z,71.81
2019-06-07T01:03:58.455Z,72.38
2019-06-07T01:06:28.284Z,71.67
2019-06-07T01:08:58.118Z,71.83
2019-06-07T01:11:28.016Z,71.71
2019-06-07T01:13:57.917Z,72.48
2019-06-07T01:16:27.904Z,73.27
2019-06-07T01:18:57.832Z,73.59
2019-06-07T01:21:29.985Z,73.52
2019-06-07T01:24:11.447Z,73.06
2019-06-07T01:26:31.888Z,73.33
2019-06-07T01:29:01.760Z,74.47
2019-06-07T01:31:32.129Z,76.01
2019-06-07T01:34:02.329Z,76.39
2019-06-07T01:36:33.324Z,76.74
2019-06-07T01:39:03.706Z,76.52
2019-06-07T01:41:34.811Z,76.34
2019-06-07T01:44:04.811Z,75.74
2019-06-07T01:46:34.740Z,76.01
2019-06-07T01:49:04.620Z,76.94
2019-06-07T01:51:35.558Z,77.97
2019-06-07T01:54:49.520Z,78.30
2019-06-07T01:56:37.362Z,77.91
2019-06-07T01:59:09.952Z,78.69
2019-06-07T02:01:39.921Z,78.91
2019-06-07T02:04:10.199Z,79.11
2019-06-07T02:06:40.193Z,78.47
2019-06-07T02:09:10.224Z,77.93
2019-06-07T02:11:42.679Z,78.08
2019-06-07T02:14:12.660Z,80.21
2019-06-07T02:16:42.688Z,80.59
2019-06-07T02:19:13.168Z,78.07
2019-06-07T02:21:43.166Z,77.07
2019-06-07T02:24:12.999Z,76.29
2019-06-07T02:26:42.860Z,77.36
2019-06-07T02:29:12.911Z,78.01
2019-06-07T02:31:42.995Z,78.77
2019-06-07T02:34:12.961Z,79.36
2019-06-07T02:36:42.787Z,79.08
2019-06-07T02:39:12.706Z,78.63
2019-06-07T02:41:42.571Z,79.16
2019-06-07T02:44:12.421Z,78.49
2019-06-07T02:46:48.998Z,77.97
2019-06-07T02:49:13.867Z,77.22
2019-06-07T02:51:43.809Z,76.46
2019-06-07T02:54:13.782Z,76.54
2019-06-07T02:56:57.261Z,76.67
2019-06-07T02:59:17.015Z,77.22
2019-06-07T03:01:47.193Z,76.88
2019-06-07T03:04:17.444Z,77.21
2019-06-07T03:06:50.826Z,76.94
2019-06-07T03:09:21.310Z,77.11
2019-06-07T03:11:53.054Z,77.42
2019-06-07T03:14:24.141Z,77.48
2019-06-07T03:17:14.539Z,77.58
2019-06-07T03:19:46.880Z,77.29
2019-06-07T03:22:16.817Z,77.01
2019-06-07T03:24:46.803Z,76.83
2019-06-07T03:27:35.094Z,76.15
2019-06-07T03:29:48.423Z,76.36
2019-06-07T03:32:18.376Z,76.88
2019-06-07T03:34:48.216Z,77.36
2019-06-07T03:37:18.139Z,78.19
2019-06-07T03:39:47.973Z,78.41
2019-06-07T03:42:17.839Z,78.03
2019-06-07T03:44:47.694Z,77.26
2019-06-07T03:47:17.687Z,77.05
2019-06-07T03:49:47.536Z,76.65
2019-06-07T03:52:17.707Z,76.94
2019-06-07T03:54:47.720Z,77.12
2019-06-07T03:57:17.834Z,77.42
2019-06-07T03:59:47.802Z,77.66
2019-06-07T04:02:17.715Z,78.03
2019-06-07T04:04:47.632Z,77.75
2019-06-07T04:07:17.482Z,76.34
2019-06-07T04:09:47.418Z,75.33
2019-06-07T04:12:17.321Z,75.10
2019-06-07T04:14:47.348Z,74.60
2019-06-07T04:17:17.624Z,74.33
2019-06-07T04:19:47.569Z,74.12
2019-06-07T04:22:17.519Z,74.28
2019-06-07T04:24:47.516Z,74.81
2019-06-07T04:27:17.411Z,75.39
2019-06-07T04:30:06.370Z,75.73
2019-06-07T04:35:08.255Z,75.93
2019-06-07T04:37:41.554Z,75.24
2019-06-07T04:40:12.780Z,74.20
2019-06-07T04:42:45.406Z,73.66
2019-06-07T04:45:33.033Z,72.72
2019-06-07T04:47:48.995Z,72.31
2019-06-07T04:50:19.056Z,72.34
2019-06-07T04:52:48.963Z,72.53
2019-06-07T04:55:18.872Z,72.48
2019-06-07T04:57:48.757Z,72.53
2019-06-07T05:00:48.524Z,72.33
2019-06-07T05:02:54.483Z,72.87
2019-06-07T05:05:24.617Z,72.61
2019-06-07T05:07:54.452Z,72.57
2019-06-07T05:10:24.456Z,72.52
2019-06-07T05:12:54.493Z,72.28
2019-06-07T05:15:24.493Z,72.03
2019-06-07T05:17:54.574Z,72.14
2019-06-07T05:20:24.476Z,72.69
2019-06-07T05:22:54.385Z,72.07
2019-06-07T05:25:24.385Z,71.90
2019-06-07T05:27:54.304Z,72.20
2019-06-07T05:33:10.311Z,71.01
2019-06-07T05:35:43.332Z,71.36
2019-06-07T05:38:12.067Z,71.18
2019-06-07T05:40:47.924Z,70.58
2019-06-07T05:43:27.950Z,70.08
2019-06-07T05:45:57.950Z,69.89
2019-06-07T05:48:27.937Z,70.01
2019-06-07T05:50:58.071Z,70.34
2019-06-07T05:53:28.076Z,69.24
2019-06-07T05:55:57.916Z,70.21
2019-06-07T05:58:27.919Z,70.86
2019-06-07T06:01:40.961Z,70.23
2019-06-07T06:03:29.578Z,69.34
2019-06-07T06:05:59.473Z,69.97
2019-06-07T06:08:29.451Z,70.84
2019-06-07T06:10:59.281Z,69.75
2019-06-07T06:13:29.288Z,69.24
2019-06-07T06:16:02.154Z,69.19
2019-06-07T06:18:30.783Z,69.49
2019-06-07T06:21:16.409Z,68.74
2019-06-07T06:23:32.360Z,68.67
2019-06-07T06:26:02.265Z,69.01
2019-06-07T06:28:32.271Z,69.32
2019-06-07T06:31:02.265Z,69.36
2019-06-07T06:33:34.873Z,67.97
2019-06-07T06:36:03.813Z,68.79
2019-06-07T06:38:33.816Z,67.89
2019-06-07T06:41:15.201Z,68.30
2019-06-07T06:43:35.502Z,67.94
2019-06-07T06:46:05.640Z,67.99
2019-06-07T06:48:35.568Z,68.21
2019-06-07T06:51:05.552Z,69.03
2019-06-07T06:53:35.567Z,68.43
2019-06-07T06:56:05.540Z,66.98
2019-06-07T06:59:21.912Z,65.33
2019-06-07T07:01:08.414Z,65.92
2019-06-07T07:06:25.110Z,65.23
2019-06-07T07:08:43.532Z,64.51
2019-06-07T07:11:14.716Z,65.72
2019-06-07T07:13:49.087Z,65.06
2019-06-07T07:16:16.148Z,65.15
2019-06-07T07:18:51.098Z,65.30
2019-06-07T07:21:18.746Z,65.55
2019-06-07T07:24:12.345Z,66.39
2019-06-07T07:26:20.362Z,65.93
2019-06-07T07:28:51.779Z,66.05
2019-06-07T07:31:25.440Z,66.06
2019-06-07T07:36:38.976Z,65.72
2019-06-07T07:39:04.589Z,65.81
2019-06-07T07:41:31.850Z,64.48
2019-06-07T07:44:07.085Z,63.83
2019-06-07T07:46:33.467Z,63.98
2019-06-07T07:49:03.443Z,64.44
2019-06-07T07:51:33.452Z,63.24
2019-06-07T07:54:10.558Z,63.79
2019-06-07T07:56:35.139Z,64.07
2019-06-07T07:59:05.463Z,64.30
2019-06-07T08:01:35.672Z,63.45
2019-06-07T08:04:05.666Z,64.46
2019-06-07T08:06:35.935Z,63.33
2019-06-07T08:09:07.828Z,63.83
2019-06-07T08:11:37.728Z,63.58
2019-06-07T08:14:07.756Z,62.95
2019-06-07T08:16:37.574Z,62.34
2019-06-07T08:19:07.583Z,61.98
2019-06-07T08:21:38.668Z,61.50
2019-06-07T08:24:08.743Z,61.75
2019-06-07T08:26:38.784Z,61.18
2019-06-07T08:29:09.802Z,60.51
2019-06-07T08:31:39.736Z,60.74
2019-06-07T08:34:09.651Z,60.43
2019-06-07T08:36:42.513Z,59.36
2019-06-07T08:39:11.249Z,59.94
2019-06-07T08:41:53.790Z,59.79
2019-06-07T08:44:23.184Z,58.55
2019-06-07T08:46:44.531Z,57.90
2019-06-07T08:49:14.355Z,57.05
2019-06-07T08:51:44.356Z,58.11
2019-06-07T08:54:22.727Z,58.15
2019-06-07T08:56:47.131Z,57.90
2019-06-07T08:59:16.981Z,58.58
2019-06-07T09:01:46.827Z,57.90
2019-06-07T09:04:16.747Z,56.21
2019-06-07T09:07:06.800Z,58.12
2019-06-07T09:09:18.389Z,56.96
2019-06-07T09:11:48.264Z,56.11
2019-06-07T09:14:18.168Z,55.37
2019-06-07T09:16:48.081Z,55.60
2019-06-07T09:19:17.993Z,55.59
2019-06-07T09:21:47.986Z,55.28
2019-06-07T09:24:18.021Z,55.25
2019-06-07T09:26:48.092Z,55.13
2019-06-07T09:29:19.013Z,56.48
2019-06-07T09:31:53.221Z,53.93
2019-06-07T09:34:20.703Z,53.90
2019-06-07T09:36:50.774Z,54.31
2019-06-07T09:39:20.849Z,53.99
2019-06-07T09:41:50.881Z,53.45
2019-06-07T09:44:25.802Z,53.58
2019-06-07T09:47:14.261Z,54.08
2019-06-07T09:49:32.097Z,52.86
2019-06-07T09:51:57.314Z,52.91
2019-06-07T09:55:03.104Z,52.15
2019-06-07T09:57:02.655Z,52.94
2019-06-07T09:59:30.688Z,53.72
2019-06-07T10:02:01.471Z,53.90
2019-06-07T10:04:32.229Z,55.02
2019-06-07T10:07:13.123Z,53.95
2019-06-07T10:10:11.727Z,54.97
2019-06-07T10:12:07.013Z,53.68
2019-06-07T10:14:36.991Z,54.31
2019-06-07T10:17:07.357Z,53.29
2019-06-07T10:19:37.316Z,53.06
2019-06-07T10:22:07.839Z,52.63
2019-06-07T10:24:37.826Z,53.45
2019-06-07T10:27:07.971Z,54.88
2019-06-07T10:29:41.164Z,50.68
2019-06-07T10:32:11.550Z,50.58
2019-06-07T10:34:41.568Z,49.79
2019-06-07T10:37:15.203Z,50.20
2019-06-07T10:39:48.563Z,51.29
2019-06-07T10:42:15.898Z,51.36
2019-06-07T10:44:45.786Z,51.19
2019-06-07T10:47:15.717Z,52.97
2019-06-07T10:49:45.538Z,50.56
2019-06-07T10:52:15.524Z,51.37
2019-06-07T10:54:45.607Z,50.63
2019-06-07T10:57:16.325Z,48.97
2019-06-07T10:59:46.332Z,49.78
2019-06-07T11:02:16.329Z,49.63
2019-06-07T11:04:46.321Z,49.54
2019-06-07T11:07:16.558Z,47.88
2019-06-07T11:09:46.556Z,48.69
2019-06-07T11:12:16.563Z,48.20
2019-06-07T11:14:46.525Z,47.75
2019-06-07T11:17:17.888Z,47.78
2019-06-07T11:19:48.856Z,44.95
2019-06-07T11:22:21.639Z,44.08
2019-06-07T11:24:51.573Z,43.85
2019-06-07T11:27:21.623Z,45.07
2019-06-07T11:29:51.507Z,44.39
2019-06-07T11:32:21.456Z,46.25
2019-06-07T11:34:51.313Z,47.61
2019-06-07T11:37:21.294Z,45.88
2019-06-07T11:39:51.433Z,46.68
2019-06-07T11:42:21.415Z,44.61
2019-06-07T11:44:56.940Z,44.73
2019-06-07T11:47:22.948Z,44.80
2019-06-07T11:49:52.800Z,45.56
2019-06-07T11:52:22.710Z,45.06
2019-06-07T11:54:52.763Z,44.99
2019-06-07T11:57:22.759Z,44.54
2019-06-07T11:59:52.858Z,44.31
2019-06-07T12:02:22.874Z,43.21
2019-06-07T12:04:52.769Z,43.48
2019-06-07T12:07:22.857Z,42.79
2019-06-07T12:09:56.461Z,43.41
2019-06-07T12:12:24.480Z,43.96
2019-06-07T12:14:54.535Z,42.33
2019-06-07T12:17:24.516Z,40.77
2019-06-07T12:19:54.368Z,39.85
2019-06-07T12:22:24.202Z,40.34
2019-06-07T12:24:54.137Z,40.17
2019-06-07T12:27:24.105Z,39.70
2019-06-07T12:29:53.941Z,39.97
2019-06-07T12:32:23.921Z,39.04
2019-06-07T12:34:53.762Z,39.24
2019-06-07T12:37:39.249Z,38.61
2019-06-07T12:39:55.243Z,39.67
2019-06-07T12:42:25.158Z,39.21
2019-06-07T12:44:55.109Z,38.69
2019-06-07T12:47:25.054Z,38.72
2019-06-07T12:49:54.952Z,36.41
2019-06-07T12:52:24.792Z,36.26
2019-06-07T12:54:54.750Z,36.78
2019-06-07T12:57:24.720Z,39.11
2019-06-07T12:59:54.644Z,37.62
2019-06-07T13:02:25.620Z,37.75
2019-06-07T13:04:55.775Z,35.68
2019-06-07T13:07:25.667Z,37.40
2019-06-07T13:09:56.756Z,38.83
2019-06-07T13:12:28.134Z,37.59
2019-06-07T13:14:58.199Z,36.76
2019-06-07T13:17:28.638Z,35.30
2019-06-07T13:19:58.780Z,35.97
2019-06-07T13:22:28.752Z,34.68
2019-06-07T13:24:59.793Z,34.90
2019-06-07T13:27:33.330Z,33.92
2019-06-07T13:30:09.797Z,35.91
2019-06-07T13:32:34.206Z,35.31
2019-06-07T13:35:04.607Z,35.07
2019-06-07T13:37:34.480Z,35.89
2019-06-07T13:40:05.483Z,35.98
2019-06-07T13:42:35.486Z,35.17
2019-06-07T13:45:05.986Z,35.98
2019-06-07T13:47:35.957Z,35.37
2019-06-07T13:50:06.885Z,35.01
2019-06-07T13:52:37.678Z,36.16
2019-06-07T13:55:08.951Z,36.52
2019-06-07T13:57:38.884Z,36.71
2019-06-07T14:00:11.223Z,35.66
2019-06-07T14:02:41.428Z,35.43
2019-06-07T14:05:11.817Z,37.60
2019-06-07T14:07:41.729Z,38.00
2019-06-07T14:10:12.442Z,35.78
2019-06-07T14:12:42.495Z,36.01
2019-06-07T14:15:14.336Z,35.20
2019-06-07T14:17:44.339Z,35.78
2019-06-07T14:20:14.582Z,36.96
2019-06-07T14:22:45.296Z,36.39
2019-06-07T14:25:15.304Z,36.85
2019-06-07T14:27:47.001Z,36.68
2019-06-07T14:30:17.449Z,36.14
2019-06-07T14:32:47.347Z,35.52
2019-06-07T14:35:17.534Z,36.29
2019-06-07T14:37:47.544Z,35.33
2019-06-07T14:40:18.085Z,36.04
2019-06-07T14:42:48.015Z,35.56
2019-06-07T14:45:18.418Z,35.61
2019-06-07T14:47:48.515Z,35.64
2019-06-07T14:50:18.691Z,34.56
2019-06-07T14:52:48.731Z,34.51
2019-06-07T14:55:20.399Z,36.05
2019-06-07T14:57:50.278Z,33.73
2019-06-07T15:00:21.907Z,33.61
2019-06-07T15:02:51.790Z,34.70
2019-06-07T15:05:26.653Z,34.76
2019-06-07T15:07:56.734Z,33.96
2019-06-07T15:10:26.775Z,33.90
2019-06-07T15:12:56.724Z,33.72
2019-06-07T15:15:28.334Z,33.09
2019-06-07T15:17:58.479Z,35.14
2019-06-07T15:20:30.291Z,33.85
2019-06-07T15:23:00.184Z,34.97
2019-06-07T15:25:31.175Z,34.08
2019-06-07T15:28:01.287Z,32.78
2019-06-07T15:30:31.667Z,33.24
2019-06-07T15:33:01.641Z,34.63
2019-06-07T15:35:32.168Z,33.82
2019-06-07T15:38:02.371Z,33.64
2019-06-07T15:40:33.145Z,34.57
2019-06-07T15:43:03.176Z,34.52
2019-06-07T15:45:33.637Z,34.18
2019-06-07T15:48:03.635Z,33.41
2019-06-07T15:50:34.322Z,33.44
2019-06-07T15:53:04.546Z,34.02
2019-06-07T15:55:37.553Z,34.21
2019-06-07T15:58:06.334Z,33.79
2019-06-07T16:00:37.448Z,33.28
2019-06-07T16:03:07.461Z,33.31
2019-06-07T16:05:38.297Z,33.48
2019-06-07T16:08:08.322Z,33.81
2019-06-07T16:10:38.847Z,33.89
2019-06-07T16:13:08.955Z,34.93
2019-06-07T16:15:39.194Z,35.19
2019-06-07T16:18:10.272Z,35.61
2019-06-07T16:20:41.498Z,35.74
2019-06-07T16:23:11.492Z,35.65
2019-06-07T16:25:42.168Z,36.48
2019-06-07T16:28:12.266Z,37.03
2019-06-07T16:30:42.713Z,36.81
2019-06-07T16:33:12.808Z,36.89
2019-06-07T16:35:43.264Z,36.49
2019-06-07T16:38:13.288Z,36.07
2019-06-07T16:40:44.538Z,36.89
2019-06-07T16:43:17.846Z,37.14
2019-06-07T16:45:46.135Z,37.91
2019-06-07T16:48:17.143Z,37.62
2019-06-07T16:50:47.099Z,37.91
2019-06-07T16:53:17.011Z,37.32
2019-06-07T16:55:46.916Z,37.51
2019-06-07T16:58:16.920Z,37.11
2019-06-07T17:00:46.819Z,37.42
2019-06-07T17:03:16.742Z,37.71
2019-06-07T17:05:50.088Z,37.62
2019-06-07T17:08:18.268Z,37.88
2019-06-07T17:10:49.137Z,38.17
2019-06-07T17:13:32.519Z,38.23
2019-06-07T17:15:50.854Z,37.73
2019-06-07T17:18:20.835Z,37.26
2019-06-07T17:20:50.830Z,36.85
2019-06-07T17:23:20.803Z,36.91
2019-06-07T17:25:50.798Z,36.24
2019-06-07T17:28:20.742Z,36.21
2019-06-07T17:30:50.700Z,35.00
2019-06-07T17:33:20.583Z,33.52
2019-06-07T17:35:50.663Z,31.97
2019-06-07T17:38:20.684Z,32.39
2019-06-07T17:40:51.195Z,31.46
2019-06-07T17:43:22.159Z,30.38
2019-06-07T17:45:52.104Z,30.64
2019-06-07T17:48:24.104Z,30.60
2019-06-07T17:50:53.620Z,30.46
2019-06-07T17:53:23.585Z,30.16
2019-06-07T17:55:53.496Z,30.45
2019-06-07T17:58:23.332Z,31.19
2019-06-07T18:00:54.007Z,31.49
2019-06-07T18:03:23.922Z,31.24
2019-06-07T18:05:55.029Z,31.93
2019-06-07T18:08:26.203Z,31.87
2019-06-07T18:10:56.129Z,32.21
2019-06-07T18:13:26.013Z,32.78
2019-06-07T18:15:59.468Z,33.12
2019-06-07T18:18:27.776Z,33.97
2019-06-07T18:20:57.786Z,35.64
2019-06-07T18:23:27.695Z,37.99
2019-06-07T18:25:58.558Z,41.52
2019-06-07T18:28:28.819Z,43.49
2019-06-07T18:30:59.007Z,44.72
2019-06-07T18:33:28.979Z,45.96
2019-06-07T18:35:59.499Z,46.80
2019-06-07T18:38:30.656Z,47.76
2019-06-07T18:41:00.627Z,48.20
2019-06-07T18:43:31.532Z,48.60
2019-06-07T18:46:01.466Z,49.28
2019-06-07T18:48:31.334Z,50.42
2019-06-07T18:51:01.234Z,51.08
2019-06-07T18:53:31.163Z,51.75
2019-06-07T18:56:01.042Z,52.18
2019-06-07T18:58:30.967Z,52.62
2019-06-07T19:01:00.891Z,53.43
2019-06-07T19:03:31.928Z,54.58
2019-06-07T19:06:03.610Z,55.14
2019-06-07T19:08:33.493Z,55.73
2019-06-07T19:11:03.414Z,56.22
2019-06-07T19:13:33.392Z,56.03
2019-06-07T19:16:03.269Z,56.04
2019-06-07T19:18:33.195Z,56.07
2019-06-07T19:21:03.115Z,56.51
2019-06-07T19:23:32.993Z,57.40
2019-06-07T19:26:02.894Z,59.64
2019-06-07T19:28:32.802Z,59.13
2019-06-07T19:31:02.862Z,58.59
2019-06-07T19:33:32.828Z,58.89
2019-06-07T19:36:02.752Z,59.37
2019-06-07T19:38:32.670Z,59.51
2019-06-07T19:41:17.979Z,60.06
2019-06-07T19:43:34.211Z,61.09
2019-06-07T19:46:04.220Z,61.45
2019-06-07T19:48:34.132Z,61.10
2019-06-07T19:51:05.213Z,61.39
2019-06-07T19:53:35.115Z,61.32
2019-06-07T19:56:05.144Z,61.21
2019-06-07T19:58:35.060Z,60.85
2019-06-07T20:01:05.048Z,61.20
2019-06-07T20:03:35.029Z,60.79
2019-06-07T20:06:05.152Z,60.34
2019-06-07T20:08:35.105Z,59.76
2019-06-07T20:11:05.329Z,59.80
2019-06-07T20:13:36.227Z,59.54
2019-06-07T20:16:06.229Z,59.59
2019-06-07T20:18:36.054Z,59.01
2019-06-07T20:21:06.076Z,56.54
2019-06-07T20:23:35.906Z,53.47
2019-06-07T20:26:06.795Z,50.13
2019-06-07T20:28:36.886Z,50.00
2019-06-07T20:31:08.097Z,48.98
2019-06-07T20:33:38.286Z,49.12
2019-06-07T20:36:09.071Z,49.06
2019-06-07T20:38:39.027Z,48.84
2019-06-07T20:41:08.952Z,48.36
2019-06-07T20:43:38.882Z,47.95
2019-06-07T20:46:08.863Z,47.90
2019-06-07T20:48:38.783Z,47.44
2019-06-07T20:51:08.854Z,47.34
2019-06-07T20:53:38.774Z,47.05
2019-06-07T20:56:09.300Z,47.13
2019-06-07T20:58:40.376Z,47.49
2019-06-07T21:01:10.291Z,49.18
2019-06-07T21:03:40.200Z,51.41
2019-06-07T21:06:10.600Z,53.25
2019-06-07T21:08:40.562Z,54.71
2019-06-07T21:11:10.815Z,56.26
2019-06-07T21:13:40.755Z,57.97
2019-06-07T21:16:10.606Z,59.51
2019-06-07T21:18:40.578Z,60.93
2019-06-07T21:21:10.714Z,61.14
2019-06-07T21:23:40.743Z,61.65
2019-06-07T21:26:11.111Z,62.14
2019-06-07T21:28:41.092Z,62.81
2019-06-07T21:31:12.381Z,63.04
2019-06-07T21:33:42.475Z,62.90
2019-06-07T21:36:12.509Z,62.58
2019-06-07T21:38:42.431Z,61.70
2019-06-07T21:41:12.658Z,61.51
2019-06-07T21:43:42.647Z,61.10
2019-06-07T21:46:19.972Z,60.89
2019-06-07T21:48:44.211Z,59.99
2019-06-07T21:51:14.123Z,60.23
2019-06-07T21:53:44.049Z,60.60
2019-06-07T21:56:13.877Z,60.23
2019-06-07T21:58:43.818Z,60.87
2019-06-07T22:01:23.564Z,61.04
2019-06-07T22:03:53.850Z,60.76
2019-06-07T22:06:23.958Z,61.29
2019-06-07T22:08:53.871Z,61.60
2019-06-07T22:11:25.100Z,62.56
2019-06-07T22:13:55.071Z,61.34
2019-06-07T22:16:29.202Z,60.71
2019-06-07T22:18:56.672Z,60.60
2019-06-07T22:21:26.895Z,59.75
2019-06-07T22:23:56.805Z,59.85
2019-06-07T22:26:26.743Z,59.58
2019-06-07T22:28:56.652Z,59.24
2019-06-07T22:31:26.580Z,58.13
2019-06-07T22:33:56.434Z,57.22
2019-06-07T22:36:26.456Z,57.30
2019-06-07T22:38:56.370Z,57.06
2019-06-07T22:41:26.359Z,56.19
2019-06-07T22:43:56.328Z,56.43
2019-06-07T22:46:36.980Z,56.39
2019-06-07T22:48:57.946Z,55.96
2019-06-07T22:51:28.012Z,56.27
2019-06-07T22:53:58.115Z,56.24
2019-06-07T22:56:52.905Z,56.72
2019-06-07T22:59:22.836Z,56.45
2019-06-07T23:01:52.806Z,56.16
2019-06-07T23:04:22.803Z,56.34
2019-06-07T23:06:53.121Z,56.24
2019-06-07T23:09:23.934Z,56.09
2019-06-07T23:11:53.886Z,55.89
2019-06-07T23:14:25.774Z,55.96
2019-06-07T23:16:56.199Z,55.54
2019-06-07T23:19:26.250Z,55.76
2019-06-07T23:21:56.243Z,55.54
2019-06-07T23:24:26.273Z,55.63
2019-06-07T23:26:56.108Z,55.49
2019-06-07T23:29:26.143Z,55.54
2019-06-07T23:31:56.118Z,55.54
2019-06-07T23:34:25.943Z,55.65
2019-06-07T23:36:55.863Z,55.64
2019-06-07T23:39:25.679Z,55.90
2019-06-07T23:41:55.598Z,56.27
2019-06-07T23:44:25.498Z,56.78
2019-06-07T23:47:10.332Z,56.90
2019-06-07T23:49:27.025Z,56.76
2019-06-07T23:51:56.960Z,56.83
2019-06-07T23:54:26.826Z,57.10
2019-06-07T23:56:56.780Z,57.05
2019-06-07T23:59:26.639Z,57.18
